createdAt,value
2019-04-25T00:02:11.584Z,1.20
2019-04-25T00:07:13.591Z,0.90
2019-04-25T00:12:16.079Z,0.80
2019-04-25T00:17:21.435Z,0.93
2019-04-25T00:22:33.337Z,0.97
2019-04-25T00:27:35.474Z,1.00
2019-04-25T00:32:37.613Z,0.77
2019-04-25T00:37:39.661Z,1.00
2019-04-25T00:42:43.607Z,0.97
2019-04-25T00:47:47.767Z,0.80
2019-04-25T00:52:51.933Z,1.03
2019-04-25T00:57:58.702Z,1.20
2019-04-25T01:03:03.330Z,1.20
2019-04-25T01:08:05.584Z,0.87
2019-04-25T01:13:07.667Z,1.03
2019-04-25T01:18:09.866Z,1.00
2019-04-25T01:23:13.673Z,1.50
2019-04-25T01:28:15.948Z,1.20
2019-04-25T01:33:19.654Z,1.40
2019-04-25T01:38:37.924Z,1.57
2019-04-25T01:43:48.417Z,1.60
2019-04-25T01:48:53.802Z,1.80
2019-04-25T01:53:56.799Z,1.70
2019-04-25T01:58:59.469Z,1.63
2019-04-25T02:04:03.526Z,1.87
2019-04-25T02:09:08.944Z,1.87
2019-04-25T02:14:13.618Z,1.70
2019-04-25T02:19:15.930Z,1.90
2019-04-25T02:24:18.158Z,2.00
2019-04-25T02:29:20.235Z,1.63
2019-04-25T02:34:24.820Z,1.90
2019-04-25T02:39:27.222Z,1.90
2019-04-25T02:44:31.251Z,1.93
2019-04-25T02:49:54.458Z,1.80
2019-04-25T02:54:58.423Z,1.70
2019-04-25T03:00:02.676Z,1.77
2019-04-25T03:05:09.792Z,1.40
2019-04-25T03:10:17.955Z,1.30
2019-04-25T03:15:20.134Z,1.90
2019-04-25T03:20:47.734Z,1.60
2019-04-25T03:25:50.964Z,1.70
2019-04-25T03:30:56.779Z,1.83
2019-04-25T03:35:57.206Z,1.87
2019-04-25T03:40:59.187Z,1.57
2019-04-25T03:46:03.105Z,1.60
2019-04-25T03:51:06.658Z,1.83
2019-04-25T03:56:09.039Z,1.60
2019-04-25T04:01:11.294Z,2.20
2019-04-25T04:06:14.591Z,2.73
2019-04-25T04:11:17.323Z,2.73
2019-04-25T04:16:23.232Z,3.27
2019-04-25T04:21:46.400Z,2.87
2019-04-25T04:27:09.528Z,2.70
2019-04-25T04:32:14.382Z,2.30
2019-04-25T04:37:17.563Z,2.30
2019-04-25T04:42:19.675Z,2.13
2019-04-25T04:47:23.519Z,2.10
2019-04-25T04:52:25.918Z,2.00
2019-04-25T04:57:33.436Z,2.50
2019-04-25T05:03:00.681Z,2.20
2019-04-25T05:08:12.614Z,3.63
2019-04-25T05:13:16.695Z,2.97
2019-04-25T05:18:33.021Z,2.40
2019-04-25T05:23:24.814Z,1.80
2019-04-25T05:28:27.218Z,1.40
2019-04-25T05:33:29.339Z,1.57
2019-04-25T05:38:31.355Z,1.47
2019-04-25T05:43:33.568Z,1.60
2019-04-25T05:48:35.688Z,1.77
2019-04-25T05:53:37.950Z,1.90
2019-04-25T05:58:39.942Z,2.07
2019-04-25T06:03:41.995Z,1.30
2019-04-25T06:08:51.227Z,1.30
2019-04-25T06:14:00.310Z,1.67
2019-04-25T06:19:18.551Z,1.77
2019-04-25T06:24:45.772Z,1.40
2019-04-25T06:29:58.363Z,1.37
2019-04-25T06:34:54.590Z,1.87
2019-04-25T06:39:56.779Z,1.80
2019-04-25T06:45:28.045Z,1.40
2019-04-25T06:50:30.340Z,1.30
2019-04-25T06:55:34.336Z,1.30
2019-04-25T07:00:41.141Z,1.67
2019-04-25T07:05:41.080Z,1.60
2019-04-25T07:10:44.655Z,1.30
2019-04-25T07:15:47.130Z,1.50
2019-04-25T07:20:49.227Z,1.23
2019-04-25T07:26:00.870Z,1.30
2019-04-25T07:31:23.364Z,1.40
2019-04-25T07:36:26.656Z,1.20
2019-04-25T07:41:31.467Z,1.37
2019-04-25T07:46:37.376Z,1.30
2019-04-25T07:51:37.997Z,1.40
2019-04-25T07:56:40.071Z,1.30
2019-04-25T08:01:43.607Z,1.23
2019-04-25T08:06:46.102Z,1.20
2019-04-25T08:11:48.216Z,1.20
2019-04-25T08:16:53.836Z,1.00
2019-04-25T08:21:56.880Z,0.97
2019-04-25T08:27:00.117Z,1.10
2019-04-25T08:32:02.350Z,1.10
2019-04-25T08:37:17.039Z,0.73
2019-04-25T08:42:08.974Z,1.20
2019-04-25T08:47:11.021Z,0.97
2019-04-25T08:52:13.340Z,0.83
2019-04-25T08:57:25.610Z,1.20
2019-04-25T09:02:40.635Z,1.03
2019-04-25T09:07:44.487Z,1.10
2019-04-25T09:12:47.127Z,1.20
2019-04-25T09:17:49.209Z,1.20
2019-04-25T09:22:51.396Z,4.83
2019-04-25T09:27:54.393Z,0.90
2019-04-25T09:32:56.729Z,0.83
2019-04-25T09:38:00.300Z,0.80
2019-04-25T09:43:03.622Z,0.90
2019-04-25T09:48:13.490Z,0.80
2019-04-25T09:53:23.177Z,1.20
2019-04-25T09:58:31.434Z,0.80
2019-04-25T10:03:33.673Z,1.10
2019-04-25T10:08:36.991Z,0.93
2019-04-25T10:13:40.039Z,1.00
2019-04-25T10:18:43.733Z,0.87
2019-04-25T10:23:46.796Z,1.10
2019-04-25T10:28:49.592Z,1.03
2019-04-25T10:33:53.446Z,0.90
2019-04-25T10:39:07.243Z,0.90
2019-04-25T10:44:01.063Z,1.10
2019-04-25T10:49:04.382Z,0.93
2019-04-25T10:54:06.760Z,1.07
2019-04-25T10:59:08.810Z,1.10
2019-04-25T11:04:20.674Z,0.90
2019-04-25T11:09:24.416Z,0.90
2019-04-25T11:14:29.622Z,0.93
2019-04-25T11:19:31.854Z,1.03
2019-04-25T11:24:34.377Z,1.00
2019-04-25T11:29:36.565Z,1.10
2019-04-25T11:34:38.755Z,1.20
2019-04-25T11:40:09.254Z,0.80
2019-04-25T11:45:11.843Z,0.90
2019-04-25T11:50:14.202Z,1.00
2019-04-25T11:55:17.208Z,1.00
2019-04-25T12:00:24.464Z,0.80
2019-04-25T12:05:26.950Z,1.00
2019-04-25T12:10:29.509Z,0.80
2019-04-25T12:15:33.259Z,1.00
2019-04-25T12:20:36.581Z,1.00
2019-04-25T12:25:38.681Z,1.00
2019-04-25T12:30:40.804Z,1.03
2019-04-25T12:35:43.674Z,0.80
2019-04-25T12:40:46.961Z,1.00
2019-04-25T12:46:13.175Z,0.80
2019-04-25T12:51:15.200Z,1.00
2019-04-25T12:56:17.300Z,0.90
2019-04-25T13:01:19.374Z,0.60
2019-04-25T13:06:21.365Z,0.63
2019-04-25T13:11:24.152Z,0.73
2019-04-25T13:16:26.337Z,0.80
2019-04-25T13:21:28.442Z,0.72
2019-04-25T13:26:34.987Z,0.70
2019-04-25T13:31:56.573Z,0.70
2019-04-25T13:36:59.491Z,0.80
2019-04-25T13:42:02.436Z,0.70
2019-04-25T13:47:05.980Z,0.57
2019-04-25T13:52:08.767Z,0.80
2019-04-25T13:57:10.852Z,0.70
2019-04-25T14:02:14.095Z,0.98
2019-04-25T14:07:16.436Z,0.82
2019-04-25T14:12:18.614Z,0.80
2019-04-25T14:17:33.785Z,1.00
2019-04-25T14:22:36.027Z,0.70
2019-04-25T14:27:38.290Z,1.83
2019-04-25T14:32:40.288Z,1.20
2019-04-25T14:37:43.840Z,0.70
2019-04-25T14:42:46.042Z,0.70
2019-04-25T14:47:48.047Z,0.97
2019-04-25T14:52:50.146Z,0.80
2019-04-25T14:57:52.944Z,0.72
2019-04-25T15:02:55.330Z,0.93
2019-04-25T15:07:57.412Z,0.78
2019-04-25T15:12:59.807Z,0.80
2019-04-25T15:18:03.032Z,0.80
2019-04-25T15:23:05.309Z,0.75
2019-04-25T15:28:07.448Z,0.75
2019-04-25T15:33:11.353Z,0.90
2019-04-25T15:38:21.918Z,0.70
2019-04-25T15:43:31.409Z,1.45
2019-04-25T15:48:33.616Z,1.20
2019-04-25T15:53:35.852Z,1.07
2019-04-25T15:58:37.918Z,1.20
2019-04-25T16:03:41.022Z,1.22
2019-04-25T16:08:49.131Z,1.92
2019-04-25T16:13:52.242Z,1.07
2019-04-25T16:18:54.394Z,1.77
2019-04-25T16:23:56.487Z,0.77
2019-04-25T16:28:59.580Z,1.10
2019-04-25T16:34:01.842Z,0.80
2019-04-25T16:39:06.167Z,0.87
2019-04-25T16:44:12.901Z,3.47
2019-04-25T16:49:14.977Z,0.80
2019-04-25T16:54:17.158Z,0.97
2019-04-25T16:59:19.258Z,0.80
2019-04-25T17:04:21.371Z,1.10
2019-04-25T17:09:23.474Z,1.07
2019-04-25T17:14:37.463Z,0.80
2019-04-25T17:19:48.372Z,0.90
2019-04-25T17:24:50.397Z,1.13
2019-04-25T17:29:53.847Z,1.07
2019-04-25T17:35:11.128Z,0.90
2019-04-25T17:40:17.139Z,1.27
2019-04-25T17:45:23.911Z,1.10
2019-04-25T17:50:26.104Z,0.90
2019-04-25T17:55:28.293Z,0.70
2019-04-25T18:00:38.356Z,0.77
2019-04-25T18:05:41.409Z,0.90
2019-04-25T18:10:44.571Z,1.10
2019-04-25T18:16:06.392Z,0.73
2019-04-25T18:21:08.375Z,1.00
2019-04-25T18:26:25.332Z,0.93
2019-04-25T18:31:27.539Z,1.07
2019-04-25T18:36:39.009Z,1.20
2019-04-25T18:41:49.420Z,1.20
2019-04-25T18:46:51.553Z,3.00
2019-04-25T18:51:58.104Z,1.80
2019-04-25T18:57:31.042Z,1.27
2019-04-25T19:02:42.662Z,1.53
2019-04-25T19:07:45.358Z,1.40
2019-04-25T19:12:47.544Z,1.40
2019-04-25T19:17:49.735Z,1.00
2019-04-25T19:22:52.623Z,1.47
2019-04-25T19:27:54.974Z,1.17
2019-04-25T19:32:57.065Z,2.03
2019-04-25T19:38:01.129Z,1.40
2019-04-25T19:43:09.114Z,1.10
2019-04-25T19:48:11.429Z,2.50
2019-04-25T19:53:14.695Z,1.53
2019-04-25T19:58:16.936Z,1.60
2019-04-25T20:03:53.559Z,1.60
2019-04-25T20:09:02.774Z,1.17
2019-04-25T20:14:06.846Z,1.43
2019-04-25T20:19:09.519Z,1.00
2019-04-25T20:24:11.729Z,1.10
2019-04-25T20:29:13.896Z,1.37
2019-04-25T20:34:16.052Z,0.97
2019-04-25T20:39:18.038Z,1.33
2019-04-25T20:44:20.125Z,1.20
2019-04-25T20:49:22.116Z,1.20
2019-04-25T20:54:24.116Z,1.20
2019-04-25T20:59:26.120Z,1.20
2019-04-25T21:04:43.697Z,1.20
2019-04-25T21:09:46.000Z,1.43
2019-04-25T21:15:07.443Z,1.13
2019-04-25T21:20:10.672Z,1.00
2019-04-25T21:25:12.902Z,1.33
2019-04-25T21:30:15.159Z,1.33
2019-04-25T21:35:17.414Z,1.53
2019-04-25T21:40:32.099Z,1.20
2019-04-25T21:45:34.643Z,1.30
2019-04-25T21:50:37.043Z,1.53
2019-04-25T21:55:39.532Z,1.43
2019-04-25T22:01:02.456Z,1.60
2019-04-25T22:06:06.694Z,1.67
2019-04-25T22:11:08.904Z,1.80
2019-04-25T22:16:11.196Z,1.83
2019-04-25T22:21:13.487Z,1.60
2019-04-25T22:26:16.056Z,2.10
2019-04-25T22:31:23.960Z,1.73
2019-04-25T22:36:26.088Z,1.67
2019-04-25T22:41:28.123Z,2.00
2019-04-25T22:46:30.583Z,1.87
2019-04-25T22:51:32.976Z,1.90
2019-04-25T22:56:35.246Z,2.10
2019-04-25T23:01:54.541Z,2.00
2019-04-25T23:06:56.855Z,2.13
2019-04-25T23:11:58.961Z,2.23
2019-04-25T23:17:03.634Z,2.40
2019-04-25T23:22:05.952Z,1.90
2019-04-25T23:27:16.013Z,1.80
2019-04-25T23:32:17.966Z,2.03
2019-04-25T23:37:20.040Z,2.27
2019-04-25T23:42:22.432Z,1.83
2019-04-25T23:47:25.109Z,2.47
2019-04-25T23:52:27.220Z,2.50
2019-04-25T23:57:29.349Z,2.63
